Time;durP1;ratioP1;P1;durP2;ratioP2;P2;SDS_P1;SDS_P2;PMS_P1;PMS_P2;Temp;Humidity;BMP_temperature;BMP_pressure;BME280_temperature;BME280_humidity;BME280_pressure;Samples;Min_cycle;Max_cycle;Signal;HPM_P1;HPM_P2
2022/12/26 00:02:16;;;;;;;5.68;4.40;;;;;15.70;100766.00;;;;5049763;28;20191;-79
2022/12/26 00:04:44;;;;;;;6.57;5.15;;;;;15.70;100773.00;;;;5050833;28;20207;-79
2022/12/26 00:07:11;;;;;;;5.65;4.88;;;;;15.70;100772.00;;;;5062395;28;20272;-78
2022/12/26 00:09:38;;;;;;;6.35;5.10;;;;;15.70;100771.00;;;;5058619;28;20207;-78
2022/12/26 00:12:06;;;;;;;7.25;5.47;;;;;15.70;100775.00;;;;5067359;28;20187;-79
2022/12/26 00:14:33;;;;;;;6.88;4.82;;;;;15.70;100779.00;;;;5063434;28;20191;-78
2022/12/26 00:17:01;;;;;;;8.30;5.68;;;;;15.70;100783.00;;;;5063092;28;20192;-79
2022/12/26 00:19:29;;;;;;;7.28;5.68;;;;;15.70;100777.00;;;;5051733;28;20208;-78
2022/12/26 00:21:57;;;;;;;8.00;5.82;;;;;15.70;100786.00;;;;5051373;28;20697;-79
2022/12/26 00:24:24;;;;;;;7.93;5.38;;;;;15.70;100779.00;;;;5049181;28;20865;-79
2022/12/26 00:26:51;;;;;;;8.45;5.53;;;;;15.70;100788.00;;;;5050349;28;20199;-78
2022/12/26 00:29:19;;;;;;;9.00;5.85;;;;;15.70;100791.00;;;;5052884;28;20195;-79
2022/12/26 00:31:48;;;;;;;8.73;5.85;;;;;15.70;100805.00;;;;5050180;28;20207;-78
2022/12/26 00:34:15;;;;;;;8.73;5.75;;;;;15.70;100810.00;;;;5054519;28;20192;-79
2022/12/26 00:36:44;;;;;;;9.98;6.32;;;;;15.70;100814.00;;;;5056788;28;20649;-78
2022/12/26 00:39:12;;;;;;;9.00;6.07;;;;;15.60;100807.00;;;;5063167;28;20203;-78
2022/12/26 00:41:39;;;;;;;8.40;6.00;;;;;15.60;100805.00;;;;5055404;28;20350;-78
2022/12/26 00:44:07;;;;;;;11.10;7.38;;;;;15.60;100808.00;;;;5058607;28;20222;-79
2022/12/26 00:46:34;;;;;;;9.85;7.10;;;;;15.60;100807.00;;;;5060083;28;20195;-76
2022/12/26 00:49:01;;;;;;;11.30;6.90;;;;;15.60;100813.00;;;;5065218;28;20191;-76
2022/12/26 00:51:28;;;;;;;11.05;7.63;;;;;15.60;100817.00;;;;5053990;28;20207;-76
2022/12/26 00:53:57;;;;;;;9.00;6.80;;;;;15.60;100812.00;;;;5064115;28;20202;-76
2022/12/26 00:56:24;;;;;;;9.32;6.50;;;;;15.60;100808.00;;;;5061944;28;21034;-76
2022/12/26 00:58:52;;;;;;;11.43;7.43;;;;;15.60;100807.00;;;;5055222;28;20202;-77
2022/12/26 01:01:21;;;;;;;9.35;7.18;;;;;15.60;100811.00;;;;5051181;28;20227;-77
2022/12/26 01:03:50;;;;;;;10.75;7.28;;;;;15.60;100813.00;;;;5056713;28;20466;-78
2022/12/26 01:06:17;;;;;;;11.48;7.63;;;;;15.60;100826.00;;;;5058121;28;20661;-77
2022/12/26 01:08:45;;;;;;;11.80;8.13;;;;;15.60;100808.00;;;;5048865;28;20697;-77
2022/12/26 01:11:38;;;;;;;12.30;7.97;;;;;15.50;100811.00;;;;5050152;28;20203;-77
2022/12/26 01:14:03;;;;;;;11.73;7.35;;;;;15.50;100819.00;;;;5049250;28;20199;-77
2022/12/26 01:16:30;;;;;;;11.45;8.13;;;;;15.50;100814.00;;;;5051442;28;20285;-77
2022/12/26 01:18:57;;;;;;;12.70;8.48;;;;;15.50;100817.00;;;;5064041;28;20210;-77
2022/12/26 01:21:25;;;;;;;11.65;7.15;;;;;15.50;100820.00;;;;5051341;28;20227;-77
2022/12/26 01:23:52;;;;;;;10.07;7.35;;;;;15.50;100817.00;;;;5065906;28;20195;-77
2022/12/26 01:26:20;;;;;;;11.02;7.55;;;;;15.50;100817.00;;;;5065542;28;20191;-77
2022/12/26 01:28:48;;;;;;;11.98;8.07;;;;;15.50;100810.00;;;;5049104;28;20199;-77
2022/12/26 01:31:16;;;;;;;11.38;8.60;;;;;15.50;100809.00;;;;5058363;28;20199;-77
2022/12/26 01:33:43;;;;;;;10.05;7.95;;;;;15.50;100806.00;;;;5059474;28;20187;-77
2022/12/26 01:36:10;;;;;;;9.63;7.40;;;;;15.50;100808.00;;;;5065554;28;20689;-77
2022/12/26 01:38:38;;;;;;;11.65;8.20;;;;;15.50;100809.00;;;;5057465;28;20206;-77
2022/12/26 01:41:18;;;;;;;9.80;7.10;;;;;15.50;100810.00;;;;5064502;28;20229;-77
2022/12/26 01:44:00;;;;;;;10.43;8.38;;;;;15.40;100809.00;;;;5056876;28;20642;-77
2022/12/26 01:46:31;;;;;;;11.85;8.15;;;;;15.50;100815.00;;;;5047117;28;20204;-77
2022/12/26 01:49:06;;;;;;;11.00;8.27;;;;;15.50;100821.00;;;;5055691;28;20700;-77
2022/12/26 01:51:39;;;;;;;10.32;8.18;;;;;15.50;100822.00;;;;5052614;28;20195;-77
2022/12/26 01:54:10;;;;;;;11.77;7.18;;;;;15.50;100825.00;;;;5064817;28;20191;-77
2022/12/26 01:56:41;;;;;;;11.23;8.48;;;;;15.60;100825.00;;;;5056131;28;20206;-77
2022/12/26 01:59:14;;;;;;;12.05;8.60;;;;;15.50;100822.00;;;;5057296;28;20191;-77
2022/12/26 02:01:43;;;;;;;10.32;8.02;;;;;15.60;100819.00;;;;5052068;28;20215;-77
2022/12/26 02:06:59;;;;;;;12.13;8.65;;;;;15.50;100815.00;;;;5052898;28;20580;-77
2022/12/26 02:09:27;;;;;;;12.15;8.63;;;;;15.50;100813.00;;;;5065572;28;21089;-77
2022/12/26 02:12:00;;;;;;;12.25;8.95;;;;;15.50;100807.00;;;;5056410;28;20226;-77
2022/12/26 02:14:30;;;;;;;12.05;8.50;;;;;15.50;100807.00;;;;5056907;28;20844;-77
2022/12/26 02:16:57;;;;;;;11.25;8.82;;;;;15.60;100803.00;;;;5059330;28;20203;-77
2022/12/26 02:19:34;;;;;;;11.20;9.43;;;;;15.50;100806.00;;;;5052070;28;20203;-77
2022/12/26 02:22:31;;;;;;;14.80;9.98;;;;;15.50;100804.00;;;;5046678;28;20234;-77
2022/12/26 02:25:27;;;;;;;10.77;8.57;;;;;15.50;100801.00;;;;5048947;28;20199;-77
2022/12/26 02:28:24;;;;;;;11.63;8.90;;;;;15.40;100800.00;;;;5044730;28;20202;-77
2022/12/26 02:31:00;;;;;;;11.20;8.43;;;;;15.50;100800.00;;;;5047198;28;20199;-77
2022/12/26 02:33:42;;;;;;;13.43;9.02;;;;;15.50;100797.00;;;;5060663;28;20205;-77
2022/12/26 02:36:39;;;;;;;15.52;10.23;;;;;15.40;100806.00;;;;5064672;28;20209;-77
2022/12/26 02:39:18;;;;;;;10.20;8.40;;;;;15.50;100817.00;;;;5063648;28;20191;-77
2022/12/26 02:41:52;;;;;;;11.50;8.23;;;;;15.50;100810.00;;;;5064309;28;20230;-77
2022/12/26 02:47:17;;;;;;;10.88;7.82;;;;;15.40;100806.00;;;;5057695;28;20237;-77
2022/12/26 03:13:11;;;;;;;10.43;8.43;;;;;15.30;100805.00;;;;5052787;28;20575;-78
2022/12/26 03:18:31;;;;;;;9.93;8.38;;;;;15.30;100817.00;;;;5059310;28;20206;-77
2022/12/26 03:21:01;;;;;;;10.68;8.73;;;;;15.30;100820.00;;;;5063293;28;20222;-77
2022/12/26 03:23:30;;;;;;;12.45;9.23;;;;;15.30;100816.00;;;;5050327;28;21022;-77
2022/12/26 03:28:47;;;;;;;10.45;8.70;;;;;15.30;100828.00;;;;5052433;28;20268;-77
2022/12/26 03:31:14;;;;;;;11.20;9.32;;;;;15.30;100822.00;;;;5056361;28;20547;-77
2022/12/26 03:36:41;;;;;;;9.85;8.23;;;;;15.20;100825.00;;;;5057665;28;20288;-77
2022/12/26 03:39:17;;;;;;;9.60;8.45;;;;;15.20;100832.00;;;;5057532;28;20209;-77
2022/12/26 04:44:21;;;;;;;11.25;9.10;;;;;14.80;100844.00;;;;5051222;28;20292;-77
2022/12/26 04:46:52;;;;;;;11.65;9.60;;;;;14.80;100833.00;;;;5054399;28;20574;-77
2022/12/26 04:52:08;;;;;;;10.18;8.60;;;;;14.80;100817.00;;;;5054446;28;20190;-77
2022/12/26 04:54:35;;;;;;;13.55;9.32;;;;;14.80;100813.00;;;;5051953;28;20191;-76
2022/12/26 04:57:03;;;;;;;13.50;10.15;;;;;14.80;100809.00;;;;5055315;28;20579;-77
2022/12/26 04:59:32;;;;;;;12.73;10.48;;;;;14.80;100802.00;;;;5050965;28;20204;-77
2022/12/26 05:10:18;;;;;;;13.65;9.25;;;;;14.70;100800.00;;;;5057614;28;20573;-77
2022/12/26 05:12:45;;;;;;;11.27;8.73;;;;;14.70;100799.00;;;;5054304;28;20202;-77
2022/12/26 05:15:15;;;;;;;13.40;10.00;;;;;14.70;100800.00;;;;5051984;28;20199;-77
2022/12/26 05:28:53;;;;;;;9.45;6.85;;;;;14.60;100799.00;;;;5062462;28;20253;-77
2022/12/26 05:31:22;;;;;;;9.48;7.10;;;;;14.60;100800.00;;;;5048809;28;20581;-77
2022/12/26 05:34:06;;;;;;;7.47;6.18;;;;;14.60;100810.00;;;;5051883;28;20187;-77
2022/12/26 05:36:38;;;;;;;6.45;5.68;;;;;14.50;100814.00;;;;5051431;28;20238;-78
2022/12/26 05:39:06;;;;;;;7.78;5.88;;;;;14.50;100816.00;;;;5058352;28;20195;-77
2022/12/26 05:41:33;;;;;;;7.40;6.40;;;;;14.50;100820.00;;;;5055645;28;20211;-77
2022/12/26 05:44:00;;;;;;;8.75;6.20;;;;;14.50;100812.00;;;;5055228;28;20227;-77
2022/12/26 05:46:29;;;;;;;6.22;5.30;;;;;14.50;100823.00;;;;5052248;28;20203;-77
2022/12/26 05:48:56;;;;;;;5.40;4.85;;;;;14.50;100819.00;;;;5050677;28;21129;-76
2022/12/26 05:51:24;;;;;;;6.97;5.55;;;;;14.50;100811.00;;;;5057696;28;20191;-77
2022/12/26 05:53:52;;;;;;;7.82;5.18;;;;;14.50;100809.00;;;;5059107;28;20203;-77
2022/12/26 05:56:20;;;;;;;4.68;3.75;;;;;14.40;100804.00;;;;5059166;28;20205;-77
2022/12/26 05:58:53;;;;;;;5.95;5.00;;;;;14.40;100809.00;;;;5061854;28;20692;-78
2022/12/26 06:01:21;;;;;;;5.22;4.60;;;;;14.40;100809.00;;;;5048398;28;20251;-77
2022/12/26 06:03:52;;;;;;;5.85;4.38;;;;;14.30;100815.00;;;;5058675;28;20199;-77
2022/12/26 06:06:21;;;;;;;5.65;4.28;;;;;14.30;100807.00;;;;5062634;28;20693;-77
2022/12/26 06:08:49;;;;;;;5.30;4.68;;;;;14.30;100800.00;;;;5059947;28;20203;-77
2022/12/26 06:11:17;;;;;;;4.53;3.70;;;;;14.30;100809.00;;;;5056503;28;20206;-77
2022/12/26 06:13:44;;;;;;;4.45;3.88;;;;;14.30;100806.00;;;;5050540;28;20214;-78
2022/12/26 06:16:13;;;;;;;5.13;4.38;;;;;14.30;100812.00;;;;5060700;28;20215;-77
2022/12/26 06:18:41;;;;;;;4.88;3.30;;;;;14.30;100811.00;;;;5056874;28;20205;-77
2022/12/26 06:21:11;;;;;;;6.00;3.92;;;;;14.30;100803.00;;;;5050780;28;20223;-77
2022/12/26 06:23:39;;;;;;;4.22;3.45;;;;;14.30;100813.00;;;;5063244;28;20204;-77
2022/12/26 06:26:08;;;;;;;3.35;3.05;;;;;14.30;100805.00;;;;5060477;28;20225;-77
2022/12/26 06:28:36;;;;;;;3.72;3.35;;;;;14.30;100810.00;;;;5065872;28;20194;-76
2022/12/26 06:31:03;;;;;;;4.20;3.13;;;;;14.30;100810.00;;;;5058662;28;20204;-77
2022/12/26 06:33:31;;;;;;;4.68;3.85;;;;;14.30;100806.00;;;;5047236;28;20568;-77
2022/12/26 06:36:04;;;;;;;4.40;3.55;;;;;14.20;100811.00;;;;5063404;28;20195;-78
2022/12/26 06:38:32;;;;;;;5.30;3.92;;;;;14.30;100816.00;;;;5059124;28;20199;-77
2022/12/26 06:40:59;;;;;;;3.85;3.20;;;;;14.30;100813.00;;;;5047108;28;20192;-77
2022/12/26 06:43:27;;;;;;;3.50;3.03;;;;;14.20;100818.00;;;;5055294;28;20771;-77
2022/12/26 06:45:58;;;;;;;3.85;3.17;;;;;14.20;100822.00;;;;5056985;28;20210;-77
2022/12/26 06:48:26;;;;;;;3.88;3.30;;;;;14.20;100823.00;;;;5052490;28;20202;-77
2022/12/26 06:50:54;;;;;;;5.53;3.65;;;;;14.20;100808.00;;;;5057558;28;20207;-77
2022/12/26 06:53:21;;;;;;;3.50;3.03;;;;;14.20;100815.00;;;;5050951;28;20699;-77
2022/12/26 06:55:50;;;;;;;3.83;3.28;;;;;14.10;100810.00;;;;5058759;28;20195;-76
2022/12/26 06:58:18;;;;;;;3.92;3.15;;;;;14.10;100818.00;;;;5057653;28;20192;-77
2022/12/26 07:00:45;;;;;;;3.97;3.40;;;;;14.10;100816.00;;;;5048633;28;20226;-77
2022/12/26 07:03:13;;;;;;;4.07;3.67;;;;;14.20;100824.00;;;;5059233;28;20233;-77
2022/12/26 07:05:40;;;;;;;3.10;2.80;;;;;14.20;100819.00;;;;5063217;28;20198;-77
2022/12/26 07:08:07;;;;;;;4.60;2.92;;;;;14.20;100829.00;;;;5054173;28;20200;-77
2022/12/26 07:10:36;;;;;;;3.47;2.88;;;;;14.20;100823.00;;;;5050382;28;20546;-76
2022/12/26 07:13:05;;;;;;;3.95;3.38;;;;;14.20;100822.00;;;;5053856;28;20223;-77
2022/12/26 07:15:32;;;;;;;3.80;3.08;;;;;14.20;100835.00;;;;5058291;28;20194;-77
2022/12/26 07:17:59;;;;;;;3.53;2.85;;;;;14.20;100829.00;;;;5055168;28;20195;-78
2022/12/26 07:20:26;;;;;;;3.28;2.97;;;;;14.20;100826.00;;;;5050748;28;20187;-77
2022/12/26 07:22:55;;;;;;;3.40;2.95;;;;;14.20;100812.00;;;;5054884;28;20223;-77
2022/12/26 07:25:22;;;;;;;3.40;3.10;;;;;14.20;100823.00;;;;5067748;28;20238;-78
2022/12/26 07:27:53;;;;;;;4.60;3.22;;;;;14.10;100824.00;;;;5063631;28;20206;-76
2022/12/26 07:30:22;;;;;;;3.50;2.92;;;;;14.10;100828.00;;;;5065244;28;20226;-77
2022/12/26 07:32:49;;;;;;;5.75;3.20;;;;;14.10;100827.00;;;;5062980;28;20576;-76
2022/12/26 07:35:16;;;;;;;4.10;3.03;;;;;14.10;100820.00;;;;5059329;28;20187;-77
2022/12/26 07:37:44;;;;;;;2.92;2.55;;;;;14.10;100820.00;;;;5051046;28;20211;-76
2022/12/26 07:40:12;;;;;;;5.45;2.95;;;;;14.10;100823.00;;;;5056990;28;20203;-77
2022/12/26 07:42:39;;;;;;;3.83;3.13;;;;;14.10;100816.00;;;;5056084;28;20614;-77
2022/12/26 07:45:08;;;;;;;3.17;2.63;;;;;14.10;100816.00;;;;5052270;28;20191;-77
2022/12/26 07:47:36;;;;;;;5.55;4.82;;;;;14.20;100816.00;;;;5055099;28;20187;-78
2022/12/26 07:50:04;;;;;;;3.95;3.30;;;;;14.20;100824.00;;;;5058847;28;20198;-77
2022/12/26 07:52:31;;;;;;;4.40;2.88;;;;;14.20;100829.00;;;;5052858;28;20199;-76
2022/12/26 07:54:59;;;;;;;3.05;2.42;;;;;14.20;100830.00;;;;5056794;28;20207;-77
2022/12/26 07:57:26;;;;;;;2.30;2.00;;;;;14.20;100833.00;;;;5054844;28;20188;-76
2022/12/26 07:59:53;;;;;;;5.22;3.40;;;;;14.20;100843.00;;;;5053254;28;20225;-76
2022/12/26 08:02:20;;;;;;;3.30;2.90;;;;;14.30;100829.00;;;;5058031;28;20228;-76
2022/12/26 08:04:49;;;;;;;3.72;3.05;;;;;14.30;100833.00;;;;5054571;28;20202;-76
2022/12/26 08:07:16;;;;;;;2.88;2.17;;;;;14.30;100827.00;;;;5054541;28;20215;-76
2022/12/26 08:09:44;;;;;;;3.17;2.42;;;;;14.30;100830.00;;;;5059740;28;20297;-76
2022/12/26 08:12:12;;;;;;;2.58;2.00;;;;;14.40;100818.00;;;;5055909;28;20226;-76
2022/12/26 08:14:40;;;;;;;3.13;1.58;;;;;14.40;100817.00;;;;5055616;28;20219;-76
2022/12/26 08:17:07;;;;;;;3.30;1.77;;;;;14.40;100814.00;;;;5059203;28;20198;-76
2022/12/26 08:19:35;;;;;;;2.42;1.70;;;;;14.50;100830.00;;;;5052258;28;20211;-76
2022/12/26 08:22:03;;;;;;;2.45;1.92;;;;;14.50;100844.00;;;;5053612;28;20223;-77
2022/12/26 08:24:31;;;;;;;3.30;1.92;;;;;14.60;100845.00;;;;5050281;28;20219;-76
2022/12/26 08:26:58;;;;;;;12.23;2.80;;;;;14.60;100843.00;;;;5056649;28;20194;-77
2022/12/26 08:29:25;;;;;;;4.97;2.63;;;;;14.60;100851.00;;;;5051852;28;20203;-76
2022/12/26 08:31:53;;;;;;;1.95;1.40;;;;;14.70;100844.00;;;;5060224;28;20208;-76
2022/12/26 08:34:20;;;;;;;2.55;1.60;;;;;14.70;100853.00;;;;5050233;28;20684;-76
2022/12/26 08:36:51;;;;;;;1.83;1.50;;;;;14.70;100852.00;;;;5057966;28;20210;-76
2022/12/26 08:39:19;;;;;;;2.67;1.58;;;;;14.80;100861.00;;;;5048437;28;20223;-75
2022/12/26 08:41:47;;;;;;;1.75;1.40;;;;;14.80;100861.00;;;;5055588;28;20215;-77
2022/12/26 08:44:16;;;;;;;2.47;1.48;;;;;14.80;100865.00;;;;5050836;28;20223;-78
2022/12/26 08:46:44;;;;;;;5.28;1.33;;;;;14.90;100863.00;;;;5057161;28;20265;-77
2022/12/26 08:49:11;;;;;;;3.63;1.60;;;;;14.90;100860.00;;;;5060650;28;20198;-77
2022/12/26 08:51:39;;;;;;;1.70;1.42;;;;;15.00;100864.00;;;;5046525;28;20222;-76
2022/12/26 08:54:06;;;;;;;4.93;1.70;;;;;15.00;100872.00;;;;5059008;28;20191;-77
2022/12/26 08:56:35;;;;;;;3.40;1.58;;;;;15.00;100886.00;;;;5059329;28;20211;-77
2022/12/26 08:59:02;;;;;;;4.00;1.45;;;;;15.00;100871.00;;;;5058755;28;20195;-78
2022/12/26 09:01:31;;;;;;;2.05;1.40;;;;;15.00;100881.00;;;;5055969;28;20204;-78
2022/12/26 09:03:59;;;;;;;1.88;1.45;;;;;15.10;100874.00;;;;5052339;28;20242;-79
2022/12/26 09:06:27;;;;;;;6.47;3.13;;;;;15.10;100866.00;;;;5049407;28;20203;-78
2022/12/26 09:08:55;;;;;;;11.65;4.10;;;;;15.10;100874.00;;;;5058790;28;20199;-79
2022/12/26 09:11:26;;;;;;;5.80;2.42;;;;;15.10;100884.00;;;;5058506;28;20191;-77
2022/12/26 09:13:55;;;;;;;6.03;2.13;;;;;15.10;100890.00;;;;5051327;28;20223;-79
2022/12/26 09:16:24;;;;;;;30.10;12.40;;;;;15.20;100910.00;;;;5049219;28;20199;-79
2022/12/26 09:18:55;;;;;;;15.80;7.15;;;;;15.10;100909.00;;;;5057003;28;20202;-79
2022/12/26 09:21:22;;;;;;;9.90;4.53;;;;;15.20;100928.00;;;;5056746;28;20715;-80
2022/12/26 09:23:50;;;;;;;5.07;3.42;;;;;15.20;100928.00;;;;5057673;28;20218;-79
2022/12/26 09:26:20;;;;;;;6.90;2.88;;;;;15.20;100955.00;;;;5059170;28;20207;-79
2022/12/26 09:28:48;;;;;;;6.50;2.75;;;;;15.20;100960.00;;;;5051538;28;20195;-78
2022/12/26 09:31:18;;;;;;;4.15;2.67;;;;;15.20;100969.00;;;;5061985;28;20296;-78
2022/12/26 09:33:46;;;;;;;2.92;2.05;;;;;15.20;100974.00;;;;5061181;28;20202;-78
2022/12/26 09:36:16;;;;;;;3.85;1.40;;;;;15.20;100982.00;;;;5055669;28;20276;-78
2022/12/26 09:38:44;;;;;;;11.10;7.70;;;;;15.20;100979.00;;;;5052316;28;20196;-77
2022/12/26 09:41:28;;;;;;;6.70;4.07;;;;;15.20;100983.00;;;;5051915;28;20199;-78
2022/12/26 09:44:05;;;;;;;5.05;3.17;;;;;15.20;100984.00;;;;5053273;28;20233;-78
2022/12/26 09:46:39;;;;;;;4.00;2.00;;;;;15.20;100997.00;;;;5046541;28;20207;-78
2022/12/26 09:49:12;;;;;;;3.65;1.60;;;;;15.20;100991.00;;;;5054945;28;20202;-78
2022/12/26 09:51:42;;;;;;;3.03;2.03;;;;;15.30;100998.00;;;;5053848;28;20604;-79
2022/12/26 09:54:17;;;;;;;4.00;1.85;;;;;15.30;101012.00;;;;5054678;28;20200;-79
2022/12/26 09:56:46;;;;;;;2.42;1.95;;;;;15.30;101027.00;;;;5052455;28;20199;-78
2022/12/26 09:59:17;;;;;;;3.25;1.90;;;;;15.30;101030.00;;;;5055031;28;20313;-78
2022/12/26 10:01:47;;;;;;;2.25;1.33;;;;;15.30;101029.00;;;;5058146;28;20194;-78
2022/12/26 10:04:22;;;;;;;2.60;1.00;;;;;15.20;101045.00;;;;5056034;28;20222;-77
2022/12/26 10:06:58;;;;;;;3.28;0.70;;;;;15.20;101065.00;;;;5056215;28;20195;-77
2022/12/26 10:09:54;;;;;;;6.80;2.80;;;;;15.10;101073.00;;;;5054221;28;20707;-77
2022/12/26 10:12:41;;;;;;;17.30;7.55;;;;;15.00;101066.00;;;;5053924;28;20199;-77
2022/12/26 10:15:30;;;;;;;9.63;5.15;;;;;15.00;101072.00;;;;5052379;28;20196;-78
2022/12/26 10:18:12;;;;;;;9.93;4.57;;;;;14.90;101094.00;;;;5053649;28;20199;-77
2022/12/26 10:20:52;;;;;;;7.72;4.28;;;;;14.80;101084.00;;;;5047965;28;20211;-77
2022/12/26 10:23:32;;;;;;;6.00;2.80;;;;;14.70;101102.00;;;;5044952;28;20228;-77
2022/12/26 10:26:08;;;;;;;3.47;1.52;;;;;14.70;101109.00;;;;5047397;28;20202;-77
2022/12/26 10:28:39;;;;;;;5.10;1.67;;;;;14.70;101113.00;;;;5047444;28;20194;-76
2022/12/26 10:31:12;;;;;;;5.35;1.10;;;;;14.70;101113.00;;;;5055478;28;20207;-76
2022/12/26 10:33:46;;;;;;;4.38;0.70;;;;;14.60;101115.00;;;;5050609;28;20196;-76
2022/12/26 10:36:28;;;;;;;4.50;1.25;;;;;14.60;101120.00;;;;5052912;28;20710;-77
2022/12/26 10:38:58;;;;;;;8.82;1.45;;;;;14.60;101128.00;;;;5047673;28;20204;-76
2022/12/26 10:41:28;;;;;;;2.97;0.60;;;;;14.60;101134.00;;;;5053780;28;20230;-76
2022/12/26 10:43:55;;;;;;;8.43;1.38;;;;;14.50;101126.00;;;;5050514;28;20246;-76
2022/12/26 10:46:48;;;;;;;5.20;0.73;;;;;14.30;101136.00;;;;5054372;28;20195;-76
2022/12/26 10:49:21;;;;;;;5.22;0.70;;;;;14.30;101136.00;;;;5052540;28;20196;-76
2022/12/26 10:51:49;;;;;;;2.88;0.77;;;;;14.30;101149.00;;;;5057949;28;20202;-76
2022/12/26 10:54:18;;;;;;;6.18;0.82;;;;;14.30;101151.00;;;;5052235;28;20590;-76
2022/12/26 10:56:48;;;;;;;3.33;1.13;;;;;14.20;101150.00;;;;5064255;28;20199;-77
2022/12/26 10:59:18;;;;;;;3.50;1.08;;;;;14.20;101156.00;;;;5054070;28;20235;-76
2022/12/26 11:01:49;;;;;;;3.75;1.08;;;;;14.20;101153.00;;;;5054432;28;20191;-76
2022/12/26 11:04:21;;;;;;;2.72;0.77;;;;;14.10;101167.00;;;;5055330;28;20223;-76
2022/12/26 11:06:51;;;;;;;2.88;0.60;;;;;14.10;101159.00;;;;5061088;28;20203;-77
2022/12/26 11:09:39;;;;;;;7.03;1.52;;;;;14.00;101149.00;;;;5056095;28;20191;-76
2022/12/26 11:12:18;;;;;;;3.83;1.00;;;;;14.10;101166.00;;;;5055933;28;20577;-76
2022/12/26 11:14:46;;;;;;;1.63;0.68;;;;;14.10;101173.00;;;;5057910;28;20194;-76
2022/12/26 11:17:25;;;;;;;8.27;2.15;;;;;14.10;101182.00;;;;5061478;28;20195;-76
2022/12/26 11:20:22;;;;;;;7.93;3.13;;;;;14.00;101194.00;;;;5055890;28;20695;-76
2022/12/26 11:22:50;;;;;;;4.63;1.58;;;;;14.10;101193.00;;;;5054383;28;20269;-76
2022/12/26 11:25:20;;;;;;;7.55;1.80;;;;;14.10;101191.00;;;;5053386;28;20253;-76
2022/12/26 11:27:50;;;;;;;9.75;5.95;;;;;14.20;101199.00;;;;5052329;28;20203;-75
2022/12/26 11:30:25;;;;;;;10.85;5.78;;;;;14.10;101194.00;;;;5060192;28;21948;-76
2022/12/26 11:33:04;;;;;;;7.28;3.65;;;;;14.10;101202.00;;;;5055309;28;20627;-76
2022/12/26 11:35:36;;;;;;;7.40;2.10;;;;;14.10;101204.00;;;;5060782;28;20214;-77
2022/12/26 11:38:06;;;;;;;2.22;0.90;;;;;14.10;101205.00;;;;5056911;28;20206;-76
2022/12/26 11:40:36;;;;;;;5.82;2.15;;;;;14.10;101211.00;;;;5051789;28;20195;-76
2022/12/26 11:43:06;;;;;;;3.13;1.30;;;;;14.10;101212.00;;;;5055876;28;20646;-76
2022/12/26 11:45:41;;;;;;;3.65;1.65;;;;;14.10;101226.00;;;;5052161;28;20227;-75
2022/12/26 11:48:22;;;;;;;4.60;2.20;;;;;14.10;101218.00;;;;5053837;28;20199;-76
2022/12/26 11:50:51;;;;;;;3.97;1.10;;;;;14.20;101228.00;;;;5051494;28;20287;-76
2022/12/26 11:53:21;;;;;;;1.77;0.80;;;;;14.30;101225.00;;;;5066798;28;20192;-76
2022/12/26 11:55:59;;;;;;;2.35;0.93;;;;;14.20;101223.00;;;;5055368;28;20188;-76
2022/12/26 11:58:29;;;;;;;4.25;1.13;;;;;14.30;101229.00;;;;5052831;28;20202;-76
2022/12/26 12:01:07;;;;;;;3.15;0.75;;;;;14.20;101222.00;;;;5055620;28;20728;-76
2022/12/26 12:03:37;;;;;;;2.08;0.40;;;;;14.20;101230.00;;;;5056460;28;20226;-76
2022/12/26 12:06:32;;;;;;;4.70;0.60;;;;;14.10;101232.00;;;;5058197;28;20199;-76
2022/12/26 12:09:07;;;;;;;1.83;0.40;;;;;14.20;101233.00;;;;5056970;28;20202;-76
2022/12/26 12:11:43;;;;;;;3.10;0.60;;;;;14.10;101223.00;;;;5060050;28;20207;-77
2022/12/26 12:14:32;;;;;;;3.75;0.77;;;;;14.10;101215.00;;;;5053978;28;20203;-77
2022/12/26 12:17:10;;;;;;;2.88;0.57;;;;;14.10;101229.00;;;;5053998;28;20219;-77
2022/12/26 12:19:50;;;;;;;3.33;0.60;;;;;14.10;101220.00;;;;5052323;28;20195;-76
2022/12/26 12:22:40;;;;;;;0.82;0.40;;;;;14.00;101223.00;;;;5053838;28;20219;-77
2022/12/26 12:25:41;;;;;;;1.08;0.30;;;;;13.90;101235.00;;;;5056411;28;20227;-76
2022/12/26 12:28:28;;;;;;;2.88;0.40;;;;;13.80;101245.00;;;;5055872;28;20195;-77
2022/12/26 12:31:02;;;;;;;1.33;0.63;;;;;13.80;101246.00;;;;5062161;28;20207;-77
2022/12/26 12:33:44;;;;;;;2.85;0.52;;;;;13.70;101247.00;;;;5060127;28;20209;-77
2022/12/26 12:36:16;;;;;;;0.73;0.20;;;;;13.70;101246.00;;;;5057124;28;20570;-77
2022/12/26 12:39:07;;;;;;;2.58;0.80;;;;;13.60;101255.00;;;;5050668;28;20200;-76
2022/12/26 12:41:58;;;;;;;2.42;0.60;;;;;13.60;101244.00;;;;5049020;28;20199;-76
2022/12/26 12:44:34;;;;;;;1.25;0.60;;;;;13.60;101245.00;;;;5050765;28;20251;-77
2022/12/26 12:47:16;;;;;;;2.17;0.40;;;;;13.60;101256.00;;;;5060495;28;20207;-76
2022/12/26 12:49:52;;;;;;;1.05;0.30;;;;;13.60;101256.00;;;;5060624;28;20200;-76
2022/12/26 12:52:33;;;;;;;2.63;0.52;;;;;13.60;101261.00;;;;5059795;28;20704;-76
2022/12/26 12:55:30;;;;;;;1.88;0.52;;;;;13.50;101259.00;;;;5047998;28;20230;-76
2022/12/26 12:58:02;;;;;;;2.55;0.57;;;;;13.60;101262.00;;;;5051797;28;20286;-76
2022/12/26 13:00:39;;;;;;;3.80;0.60;;;;;13.60;101269.00;;;;5055100;28;20741;-76
2022/12/26 13:03:10;;;;;;;2.95;0.82;;;;;13.70;101276.00;;;;5056928;28;20206;-75
2022/12/26 13:05:44;;;;;;;2.55;0.65;;;;;13.70;101264.00;;;;5052793;28;20191;-76
2022/12/26 13:08:15;;;;;;;2.10;0.50;;;;;13.80;101271.00;;;;5054991;28;20202;-76
2022/12/26 13:10:50;;;;;;;1.90;0.50;;;;;13.80;101272.00;;;;5052323;28;20187;-77
2022/12/26 13:13:24;;;;;;;2.20;0.45;;;;;13.90;101274.00;;;;5056192;28;20203;-75
2022/12/26 13:15:56;;;;;;;4.03;0.50;;;;;14.00;101275.00;;;;5049208;28;20722;-75
2022/12/26 13:18:26;;;;;;;2.38;0.52;;;;;14.00;101279.00;;;;5055761;28;20203;-74
2022/12/26 13:20:58;;;;;;;1.00;0.35;;;;;14.10;101284.00;;;;5055599;28;20206;-75
2022/12/26 13:26:19;;;;;;;1.15;0.28;;;;;14.20;101278.00;;;;5054084;28;20207;-76
2022/12/26 13:28:57;;;;;;;1.73;0.40;;;;;14.20;101279.00;;;;5061047;28;20196;-76
2022/12/26 13:31:25;;;;;;;4.38;0.88;;;;;14.20;101291.00;;;;5055103;28;20194;-76
2022/12/26 13:33:52;;;;;;;2.05;0.40;;;;;14.20;101288.00;;;;5062290;28;20216;-76
2022/12/26 13:36:42;;;;;;;1.92;0.75;;;;;14.00;101293.00;;;;5053557;28;20199;-75
2022/12/26 13:39:32;;;;;;;1.35;0.45;;;;;14.00;101294.00;;;;5062734;28;20285;-76
2022/12/26 13:44:51;;;;;;;2.63;0.40;;;;;13.90;101289.00;;;;5055955;28;20222;-75
2022/12/26 13:47:34;;;;;;;1.52;0.50;;;;;13.80;101301.00;;;;5053196;28;20204;-75
2022/12/26 13:50:39;;;;;;;2.72;0.90;;;;;13.70;101305.00;;;;5053626;28;20196;-75
2022/12/26 13:53:28;;;;;;;7.25;1.13;;;;;13.60;101308.00;;;;5048409;28;20211;-76
2022/12/26 13:55:57;;;;;;;1.45;0.40;;;;;13.70;101313.00;;;;5060033;28;20202;-76
2022/12/26 13:58:46;;;;;;;1.42;0.50;;;;;13.50;101315.00;;;;5054458;28;20210;-76
2022/12/26 14:01:34;;;;;;;2.97;0.52;;;;;13.50;101320.00;;;;5050418;28;20191;-76
2022/12/26 14:04:23;;;;;;;4.10;0.70;;;;;13.50;101321.00;;;;5048144;28;20219;-75
2022/12/26 14:07:17;;;;;;;0.50;0.30;;;;;13.40;101327.00;;;;5053863;28;20200;-75
2022/12/26 14:09:58;;;;;;;3.65;0.60;;;;;13.40;101332.00;;;;5045036;28;20199;-74
2022/12/26 14:12:39;;;;;;;5.05;0.70;;;;;13.40;101340.00;;;;5046457;28;20203;-75
2022/12/26 14:15:23;;;;;;;1.83;0.68;;;;;13.30;101343.00;;;;5052913;28;20213;-75
2022/12/26 14:18:03;;;;;;;3.38;0.60;;;;;13.30;101345.00;;;;5059637;28;20195;-75
2022/12/26 14:20:40;;;;;;;3.15;0.57;;;;;13.20;101352.00;;;;5046303;28;20191;-75
2022/12/26 14:23:23;;;;;;;2.60;0.50;;;;;13.20;101360.00;;;;5047109;28;20195;-76
2022/12/26 14:25:59;;;;;;;4.28;1.02;;;;;13.10;101364.00;;;;5051321;28;20222;-75
2022/12/26 14:28:51;;;;;;;4.18;1.13;;;;;13.00;101364.00;;;;5052025;28;20202;-76
2022/12/26 14:31:26;;;;;;;3.85;0.70;;;;;13.10;101369.00;;;;5059950;28;20199;-76
2022/12/26 14:34:00;;;;;;;3.42;0.40;;;;;13.00;101371.00;;;;5062559;28;20218;-76
2022/12/26 14:36:39;;;;;;;3.38;0.47;;;;;12.90;101387.00;;;;5054126;28;20210;-76
2022/12/26 14:39:21;;;;;;;7.68;0.80;;;;;12.80;101385.00;;;;5060289;28;20200;-77
2022/12/26 14:45:03;;;;;;;2.15;0.57;;;;;12.70;101393.00;;;;5052278;28;20307;-77